Time;durP1;ratioP1;P1;durP2;ratioP2;P2;SDS_P1;SDS_P2;PMS_P1;PMS_P2;Temp;Humidity;BMP_temperature;BMP_pressure;BME280_temperature;BME280_humidity;BME280_pressure;Samples;Min_cycle;Max_cycle;Signal;HPM_P1;HPM_P2
2023/09/15 00:00:33;;;;;;;9.20;6.40;;;;;;;14.84;100.00;98412.77;107273;1275;24628;-82
2023/09/15 00:03:21;;;;;;;8.20;6.40;;;;;;;14.87;100.00;98411.88;107258;1275;25340;-82
2023/09/15 00:05:49;;;;;;;7.10;5.80;;;;;;;14.88;100.00;98412.55;107227;1275;22549;-83
2023/09/15 00:08:17;;;;;;;8.70;5.60;;;;;;;14.91;100.00;98411.83;107139;1275;22614;-82
2023/09/15 00:10:46;;;;;;;9.70;6.20;;;;;;;14.93;100.00;98412.86;107244;1275;23267;-83
2023/09/15 00:13:15;;;;;;;7.90;5.90;;;;;;;14.94;100.00;98414.46;107306;1275;22672;-81
2023/09/15 00:15:44;;;;;;;9.20;6.50;;;;;;;14.94;100.00;98414.29;107320;1275;22528;-81
2023/09/15 00:18:13;;;;;;;7.40;6.40;;;;;;;14.95;100.00;98416.86;107189;1275;24428;-81
2023/09/15 00:20:41;;;;;;;8.00;6.30;;;;;;;14.98;100.00;98419.39;107252;1275;24252;-82
2023/09/15 00:23:09;;;;;;;11.40;6.70;;;;;;;15.02;100.00;98423.74;107421;1275;24268;-81
2023/09/15 00:25:37;;;;;;;7.20;5.70;;;;;;;15.04;100.00;98423.84;107389;1275;25478;-82
2023/09/15 00:28:05;;;;;;;9.90;5.90;;;;;;;15.08;100.00;98424.65;107701;1275;25329;-81
2023/09/15 00:30:37;;;;;;;7.80;6.00;;;;;;;15.10;100.00;98423.93;107136;1275;194247;-84
2023/09/15 00:33:06;;;;;;;7.90;5.80;;;;;;;15.12;100.00;98425.66;107271;1275;25383;-82
2023/09/15 00:35:35;;;;;;;7.30;5.50;;;;;;;15.15;100.00;98425.57;107338;1275;22523;-82
2023/09/15 00:38:03;;;;;;;7.20;5.30;;;;;;;15.18;100.00;98425.86;107289;1275;22563;-82
2023/09/15 00:40:32;;;;;;;9.30;5.50;;;;;;;15.21;100.00;98428.34;107312;1275;25056;-82
2023/09/15 00:43:00;;;;;;;7.10;5.40;;;;;;;15.24;100.00;98428.91;107164;1275;22525;-82
2023/09/15 00:45:28;;;;;;;9.90;5.00;;;;;;;15.26;100.00;98431.12;107273;1275;22599;-82
2023/09/15 00:47:57;;;;;;;7.60;5.50;;;;;;;15.30;100.00;98435.02;107103;1275;24384;-82
2023/09/15 00:50:31;;;;;;;8.00;5.40;;;;;;;15.31;100.00;98433.14;107266;1275;25424;-82
2023/09/15 00:53:08;;;;;;;7.40;4.90;;;;;;;15.35;100.00;98436.10;107364;1275;23276;-82
2023/09/15 00:55:38;;;;;;;7.10;5.60;;;;;;;15.36;100.00;98439.64;107331;1275;23904;-82
2023/09/15 00:58:13;;;;;;;6.40;4.60;;;;;;;15.39;100.00;98442.90;107238;1275;25316;-83
2023/09/15 01:00:43;;;;;;;6.40;4.90;;;;;;;15.44;100.00;98442.98;107276;1275;25294;-82
2023/09/15 01:03:14;;;;;;;8.90;5.20;;;;;;;15.48;100.00;98437.23;107008;1275;22504;-82
2023/09/15 01:05:45;;;;;;;6.90;5.90;;;;;;;15.48;100.00;98441.10;107373;1275;24900;-82
2023/09/15 01:08:13;;;;;;;8.30;5.30;;;;;;;15.45;100.00;98440.61;107273;1275;22552;-82
2023/09/15 01:10:41;;;;;;;6.60;4.90;;;;;;;15.42;100.00;98442.87;107212;1275;23003;-82
2023/09/15 01:13:10;;;;;;;8.60;4.90;;;;;;;15.41;100.00;98441.70;107222;1275;22612;-82
2023/09/15 01:15:49;;;;;;;6.10;4.40;;;;;;;15.40;100.00;98439.29;107414;1275;22546;-82
2023/09/15 01:18:41;;;;;;;10.10;5.20;;;;;;;15.38;100.00;98436.48;107279;1260;24232;-82
2023/09/15 01:21:47;;;;;;;7.60;4.90;;;;;;;15.35;100.00;98434.88;107040;1275;22545;-82
2023/09/15 01:24:50;;;;;;;8.70;5.40;;;;;;;15.25;100.00;98439.03;107215;1275;24410;-82
2023/09/15 01:27:41;;;;;;;6.90;5.10;;;;;;;15.16;100.00;98438.54;107215;1275;25492;-82
2023/09/15 01:30:10;;;;;;;7.50;5.10;;;;;;;15.11;100.00;98437.27;107186;1275;23134;-82
2023/09/15 01:32:41;;;;;;;7.10;4.70;;;;;;;15.10;100.00;98439.20;107276;1275;22527;-82
2023/09/15 01:35:09;;;;;;;6.30;4.50;;;;;;;15.10;100.00;98436.16;107318;1275;22585;-82
2023/09/15 01:37:37;;;;;;;5.10;4.10;;;;;;;15.09;100.00;98440.40;107282;1275;22625;-82
2023/09/15 01:40:07;;;;;;;5.80;4.20;;;;;;;15.06;100.00;98440.23;107270;1275;22998;-82
2023/09/15 01:42:35;;;;;;;6.30;3.90;;;;;;;15.05;100.00;98440.20;107261;1275;25340;-82
2023/09/15 01:45:03;;;;;;;6.60;3.80;;;;;;;15.04;100.00;98443.48;107252;1275;25501;-82
2023/09/15 01:47:33;;;;;;;7.10;4.30;;;;;;;15.01;100.00;98440.38;107278;1275;25440;-83
2023/09/15 01:50:02;;;;;;;8.70;5.00;;;;;;;14.96;100.00;98436.31;108747;1275;23046;-83
2023/09/15 01:52:30;;;;;;;6.80;4.80;;;;;;;14.95;100.00;98440.48;109358;1275;22514;-81
2023/09/15 01:55:00;;;;;;;7.80;4.80;;;;;;;14.94;100.00;98441.14;109719;1275;22682;-82
2023/09/15 01:57:29;;;;;;;7.30;5.00;;;;;;;14.92;100.00;98442.93;109789;1275;22532;-81
2023/09/15 01:59:58;;;;;;;5.80;4.80;;;;;;;14.92;100.00;98445.30;107200;1275;22521;-81
2023/09/15 02:02:27;;;;;;;7.50;4.80;;;;;;;14.89;100.00;98443.85;107224;1275;22627;-81
2023/09/15 02:04:55;;;;;;;6.50;4.60;;;;;;;14.87;100.00;98443.45;107278;1275;22632;-81
2023/09/15 02:07:24;;;;;;;8.20;4.30;;;;;;;14.81;100.00;98440.69;107248;1275;24381;-82
2023/09/15 02:09:52;;;;;;;9.40;4.90;;;;;;;14.75;100.00;98440.09;107080;1275;24210;-81
2023/09/15 02:12:20;;;;;;;7.80;4.50;;;;;;;14.72;100.00;98440.52;107214;1275;24374;-81
2023/09/15 02:14:49;;;;;;;8.60;4.90;;;;;;;14.67;100.00;98440.21;107267;1275;23003;-82
2023/09/15 02:17:17;;;;;;;8.70;5.10;;;;;;;14.63;100.00;98437.54;107282;1275;22648;-83
2023/09/15 02:19:46;;;;;;;5.60;4.40;;;;;;;14.60;100.00;98435.23;107263;1275;25416;-82
2023/09/15 02:22:14;;;;;;;9.20;5.60;;;;;;;14.58;100.00;98435.95;107313;1275;22531;-83
2023/09/15 02:24:42;;;;;;;6.30;4.80;;;;;;;14.53;100.00;98433.64;107334;1275;22747;-83
2023/09/15 02:27:11;;;;;;;6.90;5.20;;;;;;;14.49;100.00;98433.04;107191;1274;22712;-83
2023/09/15 02:29:40;;;;;;;7.70;5.40;;;;;;;14.41;100.00;98437.66;107319;1275;25606;-83
2023/09/15 02:32:08;;;;;;;7.30;5.50;;;;;;;14.31;100.00;98439.54;107283;1275;26651;-83
2023/09/15 02:34:36;;;;;;;8.00;5.20;;;;;;;14.27;100.00;98441.05;107263;1275;22667;-83
2023/09/15 02:37:04;;;;;;;8.70;5.10;;;;;;;14.28;100.00;98441.39;107227;1273;22528;-83
2023/09/15 02:39:33;;;;;;;7.40;5.00;;;;;;;14.27;100.00;98439.73;107258;1275;25288;-83
2023/09/15 02:42:01;;;;;;;9.50;5.10;;;;;;;14.23;100.00;98445.20;107249;1275;23112;-82
2023/09/15 02:44:29;;;;;;;6.90;5.00;;;;;;;14.22;100.00;98445.17;107184;1275;22534;-82
2023/09/15 02:46:57;;;;;;;7.20;6.00;;;;;;;14.23;100.00;98448.61;107216;1275;22527;-82
2023/09/15 02:49:25;;;;;;;8.00;5.20;;;;;;;14.22;100.00;98448.64;107210;1275;22584;-82
2023/09/15 02:51:53;;;;;;;7.40;5.90;;;;;;;14.18;100.00;98452.52;107180;1275;22887;-82
2023/09/15 02:54:21;;;;;;;6.40;5.00;;;;;;;14.12;100.00;98451.11;107187;1275;22675;-82
2023/09/15 02:56:50;;;;;;;11.80;4.90;;;;;;;14.07;100.00;98449.77;107252;1262;22524;-82
2023/09/15 02:59:18;;;;;;;6.60;5.60;;;;;;;14.03;100.00;98451.50;107197;1269;22526;-82
2023/09/15 03:01:46;;;;;;;8.50;5.30;;;;;;;14.00;100.00;98452.54;107282;1275;24238;-82
2023/09/15 03:04:15;;;;;;;7.40;5.80;;;;;;;13.98;100.00;98449.99;107310;1275;22601;-82
2023/09/15 03:06:43;;;;;;;7.20;5.70;;;;;;;13.97;100.00;98454.13;107325;1275;22535;-82
2023/09/15 03:09:12;;;;;;;9.60;5.70;;;;;;;13.95;100.00;98454.13;107205;1266;22521;-82
2023/09/15 03:11:40;;;;;;;8.80;5.50;;;;;;;13.95;100.00;98453.48;107252;1269;22511;-81
2023/09/15 03:14:09;;;;;;;8.30;5.00;;;;;;;13.97;100.00;98452.44;107288;1275;22527;-82
2023/09/15 03:16:41;;;;;;;7.40;5.70;;;;;;;14.02;100.00;98451.67;107364;1274;25517;-82
2023/09/15 03:19:09;;;;;;;8.60;5.60;;;;;;;14.08;100.00;98453.03;107394;1275;22540;-82
2023/09/15 03:21:38;;;;;;;7.00;5.30;;;;;;;14.14;100.00;98456.41;107415;1275;22625;-82
2023/09/15 03:24:08;;;;;;;9.40;5.80;;;;;;;14.21;100.00;98454.69;107209;1275;22489;-82
2023/09/15 03:26:39;;;;;;;10.00;4.90;;;;;;;14.27;100.00;98456.16;107390;1275;25324;-82
2023/09/15 03:29:07;;;;;;;6.70;4.60;;;;;;;14.34;100.00;98453.65;107330;1254;24314;-83
2023/09/15 03:31:35;;;;;;;7.00;5.70;;;;;;;14.38;100.00;98454.85;107176;1275;23353;-82
2023/09/15 03:34:03;;;;;;;9.80;6.30;;;;;;;14.38;100.00;98458.39;107201;1275;22630;-82
2023/09/15 03:36:32;;;;;;;9.80;5.60;;;;;;;14.39;100.00;98457.60;107228;1275;22524;-82
2023/09/15 03:39:00;;;;;;;8.30;5.00;;;;;;;14.43;100.00;98459.19;107295;1257;22528;-81
2023/09/15 03:41:28;;;;;;;7.70;5.60;;;;;;;14.44;100.00;98458.98;107401;1275;23385;-81
2023/09/15 03:43:56;;;;;;;6.90;5.60;;;;;;;14.44;100.00;98458.11;107390;1275;22850;-82
2023/09/15 03:46:25;;;;;;;7.60;5.80;;;;;;;14.43;100.00;98464.23;107264;1275;22534;-82
2023/09/15 03:48:53;;;;;;;8.60;6.30;;;;;;;14.40;100.00;98469.96;107315;1275;22590;-82
2023/09/15 03:51:22;;;;;;;7.10;5.40;;;;;;;14.35;100.00;98471.20;107218;1275;25432;-82
2023/09/15 03:53:50;;;;;;;5.90;5.30;;;;;;;14.32;100.00;98471.34;107215;1275;23877;-82
2023/09/15 03:56:18;;;;;;;6.20;5.20;;;;;;;14.29;100.00;98472.16;107359;1275;22627;-81
2023/09/15 03:58:48;;;;;;;7.20;5.10;;;;;;;14.26;100.00;98471.05;107197;1275;24432;-82
2023/09/15 04:01:19;;;;;;;9.00;5.20;;;;;;;14.24;100.00;98472.41;107214;1275;22541;-82
2023/09/15 04:03:48;;;;;;;8.60;5.10;;;;;;;14.21;100.00;98473.27;107162;1275;24043;-82
2023/09/15 04:06:16;;;;;;;8.30;5.50;;;;;;;14.19;100.00;98475.11;107190;1275;22519;-83
2023/09/15 04:08:45;;;;;;;6.60;5.30;;;;;;;14.19;100.00;98477.09;107167;1275;23246;-83
2023/09/15 04:11:14;;;;;;;9.90;5.10;;;;;;;14.20;100.00;98481.55;107379;1275;22663;-83
2023/09/15 04:13:42;;;;;;;10.00;5.50;;;;;;;14.19;100.00;98482.82;107329;1275;24252;-83
2023/09/15 04:16:10;;;;;;;5.90;5.10;;;;;;;14.20;100.00;98480.09;107122;1275;22534;-83
2023/09/15 04:18:38;;;;;;;7.10;5.60;;;;;;;14.20;100.00;98481.98;107303;1275;25233;-83
2023/09/15 04:21:06;;;;;;;7.20;5.40;;;;;;;14.18;100.00;98482.85;107247;1275;22629;-83
2023/09/15 04:23:34;;;;;;;7.00;5.50;;;;;;;14.18;100.00;98485.61;107226;1275;24494;-80
2023/09/15 04:26:04;;;;;;;7.80;5.20;;;;;;;14.19;100.00;98486.02;107263;1275;25574;-82
2023/09/15 04:28:33;;;;;;;7.50;5.00;;;;;;;14.21;100.00;98490.52;107314;1275;22532;-82
2023/09/15 04:31:03;;;;;;;8.10;5.90;;;;;;;14.24;100.00;98491.95;107262;1275;22565;-82
2023/09/15 04:33:31;;;;;;;6.80;5.80;;;;;;;14.28;100.00;98493.13;107320;1275;22643;-82
2023/09/15 04:35:59;;;;;;;6.70;5.60;;;;;;;14.32;100.00;98497.84;107201;1273;22643;-82
2023/09/15 04:38:27;;;;;;;8.10;6.20;;;;;;;14.35;100.00;98500.86;107283;1273;22531;-81
2023/09/15 04:40:56;;;;;;;19.50;17.40;;;;;;;14.33;100.00;98498.35;107188;1275;22562;-82
2023/09/15 04:43:24;;;;;;;11.30;8.00;;;;;;;14.36;100.00;98503.39;107051;1275;25596;-82
2023/09/15 04:45:56;;;;;;;7.70;6.50;;;;;;;14.36;100.00;98502.91;107478;1275;22656;-82
2023/09/15 04:48:24;;;;;;;9.60;6.20;;;;;;;14.34;100.00;98503.60;107469;1262;22541;-82
2023/09/15 04:50:52;;;;;;;10.90;6.70;;;;;;;14.34;100.00;98508.22;107179;1275;22524;-82
2023/09/15 04:53:20;;;;;;;7.50;6.70;;;;;;;14.35;100.00;98511.16;107237;1275;23304;-83
2023/09/15 04:55:50;;;;;;;6.90;5.80;;;;;;;14.36;100.00;98512.83;107163;1274;25316;-83
2023/09/15 04:58:18;;;;;;;8.50;6.50;;;;;;;14.39;100.00;98510.64;107222;1273;22524;-82
2023/09/15 05:00:48;;;;;;;11.10;6.60;;;;;;;14.39;100.00;98510.08;107322;1275;25287;-84
2023/09/15 05:03:16;;;;;;;8.50;6.30;;;;;;;14.40;100.00;98510.55;107488;1274;25359;-83
2023/09/15 05:05:49;;;;;;;8.50;6.50;;;;;;;14.37;100.00;98507.60;107205;1270;25472;-84
2023/09/15 05:08:18;;;;;;;8.40;5.80;;;;;;;14.34;100.00;98508.41;107196;1275;22525;-82
2023/09/15 05:10:47;;;;;;;8.50;5.70;;;;;;;14.35;100.00;98510.14;107300;1275;25565;-82
2023/09/15 05:13:15;;;;;;;8.60;5.50;;;;;;;14.38;100.00;98513.55;107281;1275;25278;-82
2023/09/15 05:15:45;;;;;;;8.00;6.10;;;;;;;14.41;100.00;98513.30;107222;1275;22623;-82
2023/09/15 05:18:14;;;;;;;8.00;5.50;;;;;;;14.47;100.00;98514.19;107303;1275;25322;-81
2023/09/15 05:20:42;;;;;;;7.60;5.30;;;;;;;14.55;100.00;98515.25;107365;1275;24963;-82
2023/09/15 05:23:10;;;;;;;8.50;5.50;;;;;;;14.66;100.00;98518.41;107295;1275;24302;-82
2023/09/15 05:25:38;;;;;;;10.20;5.60;;;;;;;14.74;100.00;98517.00;107269;1275;24209;-82
2023/09/15 05:28:07;;;;;;;7.10;5.00;;;;;;;14.85;100.00;98516.58;107092;1275;23870;-82
2023/09/15 05:30:35;;;;;;;7.40;5.20;;;;;;;14.94;100.00;98520.77;106991;1275;24478;-83
2023/09/15 05:33:08;;;;;;;6.80;5.00;;;;;;;15.04;100.00;98521.70;107170;1275;22545;-82
2023/09/15 05:35:37;;;;;;;8.70;5.30;;;;;;;15.16;100.00;98530.35;108374;1275;22561;-82
2023/09/15 05:38:04;;;;;;;9.90;5.80;;;;;;;15.26;100.00;98529.94;110098;1275;22532;-82
2023/09/15 05:40:33;;;;;;;6.70;4.50;;;;;;;15.41;100.00;98533.98;109185;1275;22222;-82
2023/09/15 05:43:03;;;;;;;7.70;4.70;;;;;;;15.51;100.00;98533.44;110089;1275;22480;-82
2023/09/15 05:45:31;;;;;;;6.30;4.80;;;;;;;15.61;100.00;98530.88;107998;1267;22559;-82
2023/09/15 05:47:59;;;;;;;6.10;4.80;;;;;;;15.67;100.00;98530.91;107317;1275;23130;-83
2023/09/15 05:50:27;;;;;;;7.20;5.10;;;;;;;15.71;100.00;98533.87;107329;1275;24234;-82
2023/09/15 05:52:55;;;;;;;9.40;5.70;;;;;;;15.73;100.00;98535.98;107309;1275;25601;-83
2023/09/15 05:55:23;;;;;;;7.20;5.20;;;;;;;15.77;100.00;98542.00;107215;1275;22589;-83
2023/09/15 05:57:51;;;;;;;7.10;5.10;;;;;;;15.82;100.00;98542.01;107259;1275;22626;-82
2023/09/15 06:00:19;;;;;;;7.20;5.10;;;;;;;15.87;100.00;98544.31;107320;1275;25394;-82
2023/09/15 06:02:47;;;;;;;9.60;5.20;;;;;;;15.92;100.00;98542.76;107296;1275;25395;-82
2023/09/15 06:05:17;;;;;;;7.00;4.60;;;;;;;15.97;100.00;98539.73;107209;1275;24212;-83
2023/09/15 06:07:49;;;;;;;6.80;5.20;;;;;;;16.04;100.00;98538.48;107273;1275;23339;-83
2023/09/15 06:10:18;;;;;;;8.00;5.00;;;;;;;16.13;100.00;98536.83;107182;1275;24228;-82
2023/09/15 06:12:51;;;;;;;7.50;5.30;;;;;;;16.23;100.00;98538.73;107247;1275;22637;-82
2023/09/15 06:15:21;;;;;;;6.70;5.20;;;;;;;16.25;100.00;98542.86;107284;1275;25382;-81
2023/09/15 06:17:50;;;;;;;6.50;4.70;;;;;;;16.25;100.00;98547.70;107312;1275;24850;-82
2023/09/15 06:20:18;;;;;;;5.60;4.10;;;;;;;16.23;100.00;98548.13;107272;1275;22530;-81
2023/09/15 06:22:46;;;;;;;5.80;3.70;;;;;;;16.19;100.00;98549.14;107214;1275;22525;-81
2023/09/15 06:25:14;;;;;;;6.50;4.10;;;;;;;16.19;100.00;98551.67;107295;1267;22521;-81
2023/09/15 06:27:42;;;;;;;7.50;4.70;;;;;;;16.19;100.00;98550.27;107384;1275;23880;-82
2023/09/15 06:30:10;;;;;;;6.10;4.60;;;;;;;16.17;100.00;98549.11;107399;1275;22562;-82
2023/09/15 06:32:38;;;;;;;8.90;5.00;;;;;;;16.15;100.00;98545.47;107119;1275;22653;-81
2023/09/15 06:35:10;;;;;;;6.80;4.50;;;;;;;16.17;100.00;98544.27;107267;1275;22653;-82
2023/09/15 06:37:39;;;;;;;6.40;4.50;;;;;;;16.20;100.00;98550.86;107242;1275;22630;-82
2023/09/15 06:40:08;;;;;;;8.60;4.90;;;;;;;16.22;100.00;98552.59;107222;1275;23138;-82
2023/09/15 06:42:36;;;;;;;8.50;5.50;;;;;;;16.26;100.00;98551.80;107500;1275;25399;-81
2023/09/15 06:45:05;;;;;;;8.30;5.60;;;;;;;16.29;100.00;98551.06;107392;1275;23889;-82
2023/09/15 06:47:33;;;;;;;8.90;5.90;;;;;;;16.39;100.00;98548.56;107327;1275;24253;-83
2023/09/15 06:50:03;;;;;;;7.30;4.40;;;;;;;16.53;100.00;98547.14;107174;1275;25281;-82
2023/09/15 06:52:31;;;;;;;6.30;4.20;;;;;;;16.64;100.00;98545.05;107302;1275;23128;-83
2023/09/15 06:54:59;;;;;;;7.70;4.20;;;;;;;16.77;100.00;98542.13;107279;1275;22525;-82
2023/09/15 06:57:27;;;;;;;6.40;4.40;;;;;;;16.88;100.00;98541.21;107290;1275;24199;-82
2023/09/15 06:59:55;;;;;;;6.10;3.80;;;;;;;17.00;100.00;98541.80;107352;1275;22696;-84
2023/09/15 07:02:23;;;;;;;7.60;4.90;;;;;;;17.09;100.00;98541.89;107282;1275;22662;-81
2023/09/15 07:04:51;;;;;;;8.90;5.30;;;;;;;17.12;100.00;98547.72;107340;1275;22521;-81
2023/09/15 07:07:20;;;;;;;9.20;4.90;;;;;;;17.14;100.00;98550.94;107301;1275;25446;-81
2023/09/15 07:09:48;;;;;;;8.70;5.20;;;;;;;17.14;99.89;98551.23;107305;1275;22615;-82
2023/09/15 07:12:16;;;;;;;7.60;4.60;;;;;;;17.17;100.00;98556.10;107273;1275;24241;-81
2023/09/15 07:14:44;;;;;;;8.80;3.80;;;;;;;17.23;100.00;98559.84;107346;1275;22986;-81
2023/09/15 07:17:12;;;;;;;7.80;4.40;;;;;;;17.34;100.00;98564.35;107211;1275;24340;-81
2023/09/15 07:19:44;;;;;;;8.00;4.50;;;;;;;17.43;99.99;98567.42;107016;1275;25345;-81
2023/09/15 07:22:12;;;;;;;7.30;4.70;;;;;;;17.50;99.75;98568.90;107225;1274;22654;-82
2023/09/15 07:24:41;;;;;;;6.70;4.60;;;;;;;17.56;99.18;98573.42;107363;1275;24379;-82
2023/09/15 07:27:09;;;;;;;7.80;4.60;;;;;;;17.60;99.10;98566.48;107371;1275;22540;-82
2023/09/15 07:29:37;;;;;;;5.80;4.00;;;;;;;17.60;97.09;98565.08;107252;1275;24205;-82
2023/09/15 07:32:06;;;;;;;6.90;4.60;;;;;;;17.59;97.31;98561.16;107319;1275;22643;-82
2023/09/15 07:34:34;;;;;;;6.20;4.20;;;;;;;17.67;97.58;98566.36;107317;1275;23886;-82
2023/09/15 07:37:05;;;;;;;9.30;4.50;;;;;;;17.81;97.45;98565.16;107296;1275;24346;-83
2023/09/15 07:39:33;;;;;;;7.70;4.30;;;;;;;17.99;97.36;98565.36;107290;1275;22552;-82
2023/09/15 07:42:02;;;;;;;6.20;3.80;;;;;;;18.13;97.02;98565.38;107712;1275;25380;-82
2023/09/15 07:44:30;;;;;;;5.50;3.90;;;;;;;18.31;95.26;98566.98;107365;1272;22648;-82
2023/09/15 07:46:59;;;;;;;6.00;3.80;;;;;;;18.44;95.66;98570.34;107334;1275;25406;-82
2023/09/15 07:49:27;;;;;;;6.70;3.90;;;;;;;18.52;94.35;98569.85;107289;1275;22524;-82
2023/09/15 07:51:55;;;;;;;7.40;3.80;;;;;;;18.58;94.67;98566.11;107308;1274;22575;-82
2023/09/15 07:54:49;;;;;;;6.90;4.00;;;;;;;18.62;94.97;98572.40;107239;1275;22462;-83
2023/09/15 07:57:17;;;;;;;8.10;4.30;;;;;;;18.61;95.01;98575.31;107432;1274;22680;-82
2023/09/15 07:59:45;;;;;;;7.40;4.00;;;;;;;18.58;94.80;98575.23;107373;1275;23276;-83
2023/09/15 08:02:16;;;;;;;6.10;3.90;;;;;;;18.58;94.89;98577.17;107298;1275;22648;-82
2023/09/15 08:04:44;;;;;;;9.20;3.80;;;;;;;18.63;94.68;98578.33;107333;1275;22747;-82
2023/09/15 08:07:12;;;;;;;6.10;3.80;;;;;;;18.60;93.49;98577.55;107277;1275;22762;-83
2023/09/15 08:09:40;;;;;;;7.00;3.40;;;;;;;18.52;92.27;98575.70;107313;1253;22618;-82
2023/09/15 08:12:08;;;;;;;5.00;3.50;;;;;;;18.49;93.23;98575.05;107381;1275;22599;-81
2023/09/15 08:15:07;;;;;;;8.80;3.30;;;;;;;18.66;93.34;98573.30;107353;1275;23697;-81
2023/09/15 08:17:35;;;;;;;5.70;3.00;;;;;;;18.79;92.84;98578.24;107286;1275;24194;-81
2023/09/15 08:20:04;;;;;;;5.70;3.90;;;;;;;18.86;91.11;98576.98;107246;1275;24062;-82
2023/09/15 08:22:34;;;;;;;5.40;3.30;;;;;;;18.86;91.48;98578.55;107317;1275;25291;-81
2023/09/15 08:25:03;;;;;;;4.20;3.00;;;;;;;18.96;90.95;98575.85;107253;1275;22558;-82
2023/09/15 08:27:32;;;;;;;6.00;3.40;;;;;;;19.09;91.54;98572.25;107303;1275;22564;-81
2023/09/15 08:30:00;;;;;;;4.90;3.00;;;;;;;19.21;91.25;98570.70;107223;1275;25325;-81
2023/09/15 08:32:28;;;;;;;5.90;2.80;;;;;;;19.28;87.54;98573.05;107287;1275;22571;-82
2023/09/15 08:34:57;;;;;;;15.60;5.20;;;;;;;19.28;87.49;98571.10;107190;1275;24230;-82
2023/09/15 08:37:26;;;;;;;30.80;10.80;;;;;;;19.36;88.16;98569.31;107322;1275;23925;-82
2023/09/15 08:39:54;;;;;;;89.10;29.60;;;;;;;19.45;87.65;98571.74;107185;1275;22534;-82
2023/09/15 08:42:26;;;;;;;21.00;9.90;;;;;;;19.56;87.42;98571.16;107237;1275;22585;-83
2023/09/15 08:44:56;;;;;;;6.00;3.70;;;;;;;19.67;86.14;98570.27;107160;1275;25380;-82
2023/09/15 08:47:27;;;;;;;25.70;9.40;;;;;;;19.82;86.77;98573.01;107069;1275;24352;-81
2023/09/15 08:49:56;;;;;;;43.90;18.00;;;;;;;19.93;84.34;98572.26;107248;1275;22520;-81
2023/09/15 08:52:24;;;;;;;30.80;12.90;;;;;;;20.04;83.78;98574.68;107263;1275;23409;-81
2023/09/15 08:54:54;;;;;;;161.50;49.40;;;;;;;20.16;84.68;98571.95;107235;1275;22561;-81
2023/09/15 08:57:24;;;;;;;10.40;5.80;;;;;;;20.22;83.19;98575.02;107260;1275;22550;-81
2023/09/15 08:59:53;;;;;;;5.70;3.50;;;;;;;20.34;82.78;98577.94;107338;1275;22524;-81
2023/09/15 09:02:24;;;;;;;90.00;27.40;;;;;;;20.47;83.61;98573.98;107336;1275;22676;-82
2023/09/15 09:04:53;;;;;;;23.30;10.60;;;;;;;20.57;81.22;98571.81;107323;1275;25351;-82
2023/09/15 09:07:21;;;;;;;7.60;3.70;;;;;;;20.71;80.80;98574.47;107101;1274;23936;-81
2023/09/15 09:09:51;;;;;;;5.00;2.90;;;;;;;20.79;81.62;98572.26;107067;1275;22527;-81
2023/09/15 09:12:20;;;;;;;5.10;2.60;;;;;;;20.83;81.44;98570.67;107235;1275;22642;-82
2023/09/15 09:14:54;;;;;;;5.20;3.20;;;;;;;20.76;79.79;98574.98;107280;1275;22582;-82
2023/09/15 09:17:23;;;;;;;3.70;2.40;;;;;;;20.72;79.24;98580.60;107092;1275;22655;-83
2023/09/15 09:19:51;;;;;;;4.20;2.70;;;;;;;20.77;79.02;98578.55;107150;1275;25412;-81
2023/09/15 09:22:19;;;;;;;12.30;3.00;;;;;;;20.82;78.42;98579.79;107524;1275;22548;-81
2023/09/15 09:24:55;;;;;;;5.00;3.00;;;;;;;20.96;79.30;98574.50;109062;1275;22757;-82
2023/09/15 09:27:33;;;;;;;5.70;2.70;;;;;;;21.07;78.43;98574.89;109124;1275;22550;-81
2023/09/15 09:30:01;;;;;;;3.20;2.30;;;;;;;21.23;78.22;98575.22;109799;1275;22553;-80
2023/09/15 09:32:29;;;;;;;5.00;2.90;;;;;;;21.40;76.78;98573.79;108651;1253;22773;-81
2023/09/15 09:34:57;;;;;;;7.00;2.50;;;;;;;21.56;75.40;98575.14;107338;1259;22520;-81
2023/09/15 09:37:26;;;;;;;4.90;2.80;;;;;;;21.67;74.26;98575.48;107298;1275;24363;-83
2023/09/15 09:39:54;;;;;;;7.80;2.70;;;;;;;21.78;72.57;98575.48;107335;1275;24222;-82
2023/09/15 09:42:26;;;;;;;3.10;2.20;;;;;;;21.90;72.61;98578.25;107300;1275;26624;-82
2023/09/15 09:44:55;;;;;;;3.60;2.30;;;;;;;21.99;72.87;98581.60;107406;1275;22527;-82
2023/09/15 09:47:23;;;;;;;5.30;2.70;;;;;;;22.11;72.55;98580.39;107400;1275;22644;-82
2023/09/15 09:49:54;;;;;;;3.30;2.30;;;;;;;22.19;72.81;98576.91;107375;1274;22588;-82
2023/09/15 09:52:22;;;;;;;4.90;2.80;;;;;;;22.16;71.39;98578.86;107379;1275;23451;-81
2023/09/15 09:54:50;;;;;;;6.20;2.60;;;;;;;22.03;70.19;98583.98;107377;1275;23336;-83
2023/09/15 09:57:20;;;;;;;5.90;2.60;;;;;;;21.79;67.91;98579.65;107425;1275;23125;-82
2023/09/15 09:59:48;;;;;;;5.30;2.50;;;;;;;21.55;67.91;98571.89;107184;1275;25336;-82
2023/09/15 10:02:16;;;;;;;3.10;2.10;;;;;;;21.51;65.21;98572.27;107285;1274;22523;-82
2023/09/15 10:04:45;;;;;;;4.00;2.50;;;;;;;21.37;67.25;98569.23;107357;1274;25387;-82
2023/09/15 10:07:13;;;;;;;7.30;2.70;;;;;;;21.21;66.43;98570.17;107285;1275;24427;-82
2023/09/15 10:09:43;;;;;;;4.00;2.60;;;;;;;20.87;65.79;98572.78;107317;1259;22544;-81
2023/09/15 10:12:14;;;;;;;3.70;2.70;;;;;;;20.71;67.15;98574.63;107149;1275;25399;-82
2023/09/15 10:14:42;;;;;;;5.80;2.60;;;;;;;20.72;66.88;98571.04;107424;1275;22571;-81
2023/09/15 10:17:10;;;;;;;6.80;4.70;;;;;;;20.62;67.18;98571.71;107332;1275;23401;-81
2023/09/15 10:19:39;;;;;;;4.80;3.30;;;;;;;20.56;67.66;98565.54;107251;1275;24541;-82
2023/09/15 10:22:09;;;;;;;4.50;2.40;;;;;;;20.63;68.33;98566.17;107323;1275;22578;-82
2023/09/15 10:24:43;;;;;;;3.20;2.20;;;;;;;20.85;67.12;98557.09;107362;1274;24441;-81
2023/09/15 10:27:11;;;;;;;4.50;2.50;;;;;;;21.16;67.92;98558.12;107411;1275;22537;-81
2023/09/15 10:29:44;;;;;;;4.80;2.30;;;;;;;21.47;67.68;98557.19;107293;1275;22563;-81
2023/09/15 10:32:19;;;;;;;4.10;2.70;;;;;;;21.73;66.72;98554.66;107255;1275;22533;-81
2023/09/15 10:34:48;;;;;;;6.10;2.60;;;;;;;21.80;66.82;98551.08;107260;1275;24193;-81
2023/09/15 10:37:16;;;;;;;5.20;2.60;;;;;;;21.99;66.09;98543.91;107352;1275;22647;-81
2023/09/15 10:39:44;;;;;;;4.60;2.20;;;;;;;22.03;65.75;98547.27;107293;1275;25284;-81
2023/09/15 10:42:15;;;;;;;4.90;2.30;;;;;;;22.20;65.26;98542.40;107333;1263;22520;-82
2023/09/15 10:44:44;;;;;;;5.70;2.40;;;;;;;22.26;64.30;98543.80;107328;1260;25453;-82
2023/09/15 10:47:15;;;;;;;3.10;2.50;;;;;;;22.12;63.89;98552.10;107278;1275;22560;-83
2023/09/15 10:49:52;;;;;;;3.90;2.50;;;;;;;21.92;64.13;98548.14;107370;1275;22683;-82
2023/09/15 10:52:36;;;;;;;3.50;2.50;;;;;;;21.93;64.06;98549.82;107438;1275;24190;-82
2023/09/15 10:55:05;;;;;;;5.20;2.70;;;;;;;22.16;65.28;98542.95;107160;1275;24450;-82
2023/09/15 10:57:35;;;;;;;4.50;2.30;;;;;;;22.45;65.03;98543.95;107168;1275;23370;-82
2023/09/15 11:00:06;;;;;;;5.60;2.80;;;;;;;22.53;60.88;98542.52;107307;1275;22613;-82
2023/09/15 11:02:37;;;;;;;4.60;2.80;;;;;;;22.26;61.34;98541.91;107392;1275;22569;-82
2023/09/15 11:05:05;;;;;;;3.20;2.30;;;;;;;22.19;61.26;98543.34;107481;1275;22777;-82
2023/09/15 11:07:36;;;;;;;4.60;2.90;;;;;;;22.25;59.94;98543.30;107162;1273;22989;-82
2023/09/15 11:10:06;;;;;;;4.80;2.80;;;;;;;22.31;59.67;98537.86;107387;1275;25529;-81
2023/09/15 11:12:33;;;;;;;4.90;2.30;;;;;;;22.28;59.19;98537.09;107429;1275;25325;-81
2023/09/15 11:15:02;;;;;;;3.00;2.30;;;;;;;22.24;58.43;98534.89;107338;1275;25217;-81
2023/09/15 11:17:31;;;;;;;4.20;2.30;;;;;;;22.30;59.59;98538.30;107168;1275;26194;-81
2023/09/15 11:20:04;;;;;;;3.90;2.70;;;;;;;22.40;59.52;98535.05;107468;1275;22642;-82
2023/09/15 11:22:35;;;;;;;6.00;3.90;;;;;;;22.56;56.93;98534.75;107452;1275;22547;-81
2023/09/15 11:25:04;;;;;;;5.10;3.10;;;;;;;22.68;58.74;98539.13;107335;1275;22606;-81
2023/09/15 11:27:49;;;;;;;6.80;3.70;;;;;;;22.72;58.61;98535.52;107354;1275;22536;-81
2023/09/15 11:30:18;;;;;;;4.90;3.00;;;;;;;22.65;58.64;98537.30;107293;1275;22541;-81